sensor_id;sensor_type;location;lat;lon;timestamp;temperature;humidity
10572;DHT22;5334;48.928;12.704;2022-12-18T00:01:32;-2.70;99.90
10572;DHT22;5334;48.928;12.704;2022-12-18T00:04:00;-2.80;99.90
10572;DHT22;5334;48.928;12.704;2022-12-18T00:06:28;-2.80;99.90
10572;DHT22;5334;48.928;12.704;2022-12-18T00:08:56;-2.80;99.90
10572;DHT22;5334;48.928;12.704;2022-12-18T00:11:24;-2.80;99.90
10572;DHT22;5334;48.928;12.704;2022-12-18T00:13:50;-2.80;99.90
10572;DHT22;5334;48.928;12.704;2022-12-18T00:16:18;-2.80;99.90
10572;DHT22;5334;48.928;12.704;2022-12-18T00:18:49;-2.80;99.90
10572;DHT22;5334;48.928;12.704;2022-12-18T00:21:16;-2.90;99.90
10572;DHT22;5334;48.928;12.704;2022-12-18T00:23:43;-2.80;99.90
10572;DHT22;5334;48.928;12.704;2022-12-18T00:26:22;-2.90;99.90
10572;DHT22;5334;48.928;12.704;2022-12-18T00:28:49;-2.90;99.90
10572;DHT22;5334;48.928;12.704;2022-12-18T00:31:16;-2.90;99.90
10572;DHT22;5334;48.928;12.704;2022-12-18T00:33:43;-2.90;99.90
10572;DHT22;5334;48.928;12.704;2022-12-18T00:36:12;-2.90;99.90
10572;DHT22;5334;48.928;12.704;2022-12-18T00:38:38;-3.00;99.90
10572;DHT22;5334;48.928;12.704;2022-12-18T00:41:04;-3.00;99.90
10572;DHT22;5334;48.928;12.704;2022-12-18T00:43:30;-3.00;99.90
10572;DHT22;5334;48.928;12.704;2022-12-18T00:45:56;-3.10;99.90
10572;DHT22;5334;48.928;12.704;2022-12-18T00:48:22;-3.10;99.90
10572;DHT22;5334;48.928;12.704;2022-12-18T00:50:49;-3.20;99.90
10572;DHT22;5334;48.928;12.704;2022-12-18T00:53:15;-3.20;99.90
10572;DHT22;5334;48.928;12.704;2022-12-18T00:55:41;-3.20;99.90
10572;DHT22;5334;48.928;12.704;2022-12-18T00:58:08;-3.30;99.90
10572;DHT22;5334;48.928;12.704;2022-12-18T01:00:34;-3.30;99.90
10572;DHT22;5334;48.928;12.704;2022-12-18T01:03:00;-3.20;99.90
10572;DHT22;5334;48.928;12.704;2022-12-18T01:05:26;-3.30;99.90
10572;DHT22;5334;48.928;12.704;2022-12-18T01:07:52;-3.30;99.90
10572;DHT22;5334;48.928;12.704;2022-12-18T01:10:18;-3.30;99.90
10572;DHT22;5334;48.928;12.704;2022-12-18T01:12:44;-3.30;99.90
10572;DHT22;5334;48.928;12.704;2022-12-18T01:15:11;-3.20;99.90
10572;DHT22;5334;48.928;12.704;2022-12-18T01:17:37;-3.20;99.90
10572;DHT22;5334;48.928;12.704;2022-12-18T01:20:03;-3.20;99.90
10572;DHT22;5334;48.928;12.704;2022-12-18T01:22:29;-3.10;99.90
10572;DHT22;5334;48.928;12.704;2022-12-18T01:24:55;-3.10;99.90
10572;DHT22;5334;48.928;12.704;2022-12-18T01:27:20;-3.10;99.90
10572;DHT22;5334;48.928;12.704;2022-12-18T01:29:46;-3.10;99.90
10572;DHT22;5334;48.928;12.704;2022-12-18T01:32:12;-3.10;99.90
10572;DHT22;5334;48.928;12.704;2022-12-18T01:34:37;-3.10;99.90
10572;DHT22;5334;48.928;12.704;2022-12-18T01:37:04;-3.20;99.90
10572;DHT22;5334;48.928;12.704;2022-12-18T01:39:31;-3.20;99.90
10572;DHT22;5334;48.928;12.704;2022-12-18T01:41:58;-3.20;99.90
10572;DHT22;5334;48.928;12.704;2022-12-18T01:47:40;-3.20;99.90
10572;DHT22;5334;48.928;12.704;2022-12-18T01:52:51;-3.30;99.90
10572;DHT22;5334;48.928;12.704;2022-12-18T01:55:20;-3.30;99.90
10572;DHT22;5334;48.928;12.704;2022-12-18T01:57:47;-3.30;99.90
10572;DHT22;5334;48.928;12.704;2022-12-18T02:00:18;-3.40;99.90
10572;DHT22;5334;48.928;12.704;2022-12-18T02:02:45;-3.40;99.90
10572;DHT22;5334;48.928;12.704;2022-12-18T02:05:21;-3.40;99.90
10572;DHT22;5334;48.928;12.704;2022-12-18T02:08:03;-3.40;99.90
10572;DHT22;5334;48.928;12.704;2022-12-18T02:18:44;-3.70;99.90
10572;DHT22;5334;48.928;12.704;2022-12-18T02:21:30;-3.80;99.90
10572;DHT22;5334;48.928;12.704;2022-12-18T02:26:47;-3.80;99.90
10572;DHT22;5334;48.928;12.704;2022-12-18T02:29:32;-3.80;99.90
10572;DHT22;5334;48.928;12.704;2022-12-18T02:31:59;-3.80;99.90
10572;DHT22;5334;48.928;12.704;2022-12-18T02:34:29;-3.80;99.90
10572;DHT22;5334;48.928;12.704;2022-12-18T02:36:57;-3.80;99.90
10572;DHT22;5334;48.928;12.704;2022-12-18T02:39:25;-3.70;99.90
10572;DHT22;5334;48.928;12.704;2022-12-18T02:41:52;-3.80;99.90
10572;DHT22;5334;48.928;12.704;2022-12-18T02:44:18;-3.80;99.90
10572;DHT22;5334;48.928;12.704;2022-12-18T02:46:50;-3.80;99.90
10572;DHT22;5334;48.928;12.704;2022-12-18T02:49:36;-3.80;99.90
10572;DHT22;5334;48.928;12.704;2022-12-18T02:57:34;-3.70;99.90
10572;DHT22;5334;48.928;12.704;2022-12-18T03:00:11;-3.70;99.90
10572;DHT22;5334;48.928;12.704;2022-12-18T03:02:44;-3.70;99.90
10572;DHT22;5334;48.928;12.704;2022-12-18T03:05:22;-3.70;99.90
10572;DHT22;5334;48.928;12.704;2022-12-18T03:08:10;-3.70;99.90
10572;DHT22;5334;48.928;12.704;2022-12-18T03:11:01;-3.70;99.90
10572;DHT22;5334;48.928;12.704;2022-12-18T03:13:38;-3.70;99.90
10572;DHT22;5334;48.928;12.704;2022-12-18T03:16:10;-3.70;99.90
10572;DHT22;5334;48.928;12.704;2022-12-18T03:18:52;-3.80;99.90
10572;DHT22;5334;48.928;12.704;2022-12-18T03:21:23;-3.80;99.90
10572;DHT22;5334;48.928;12.704;2022-12-18T03:23:51;-3.80;99.90
10572;DHT22;5334;48.928;12.704;2022-12-18T03:26:20;-3.80;99.90
10572;DHT22;5334;48.928;12.704;2022-12-18T03:28:53;-3.80;99.90
10572;DHT22;5334;48.928;12.704;2022-12-18T03:31:23;-3.80;99.90
10572;DHT22;5334;48.928;12.704;2022-12-18T03:34:01;-3.80;99.90
10572;DHT22;5334;48.928;12.704;2022-12-18T03:36:31;-3.80;99.90
10572;DHT22;5334;48.928;12.704;2022-12-18T03:38:57;-3.80;99.90
10572;DHT22;5334;48.928;12.704;2022-12-18T03:41:38;-3.80;99.90
10572;DHT22;5334;48.928;12.704;2022-12-18T03:44:23;-3.80;99.90
10572;DHT22;5334;48.928;12.704;2022-12-18T03:47:04;-3.80;99.90
10572;DHT22;5334;48.928;12.704;2022-12-18T03:50:19;-4.00;99.90
10572;DHT22;5334;48.928;12.704;2022-12-18T03:52:59;-4.10;99.90
10572;DHT22;5334;48.928;12.704;2022-12-18T03:55:29;-4.10;99.90
10572;DHT22;5334;48.928;12.704;2022-12-18T03:57:57;-4.20;99.90
10572;DHT22;5334;48.928;12.704;2022-12-18T04:00:22;-4.30;99.90
10572;DHT22;5334;48.928;12.704;2022-12-18T04:02:53;-4.40;99.90
10572;DHT22;5334;48.928;12.704;2022-12-18T04:05:20;-4.40;99.90
10572;DHT22;5334;48.928;12.704;2022-12-18T04:07:48;-4.50;99.90
10572;DHT22;5334;48.928;12.704;2022-12-18T04:10:16;-4.50;99.90
10572;DHT22;5334;48.928;12.704;2022-12-18T04:12:42;-4.60;99.90
10572;DHT22;5334;48.928;12.704;2022-12-18T04:15:09;-4.60;99.90
10572;DHT22;5334;48.928;12.704;2022-12-18T04:17:35;-4.50;99.90
10572;DHT22;5334;48.928;12.704;2022-12-18T04:20:02;-4.50;99.90
10572;DHT22;5334;48.928;12.704;2022-12-18T04:22:28;-4.50;99.90
10572;DHT22;5334;48.928;12.704;2022-12-18T04:24:53;-4.50;99.90
10572;DHT22;5334;48.928;12.704;2022-12-18T04:27:19;-4.50;99.90
10572;DHT22;5334;48.928;12.704;2022-12-18T04:29:45;-4.50;99.90
10572;DHT22;5334;48.928;12.704;2022-12-18T04:32:10;-4.60;99.90
10572;DHT22;5334;48.928;12.704;2022-12-18T04:34:36;-4.70;99.90
10572;DHT22;5334;48.928;12.704;2022-12-18T04:37:02;-4.70;99.90
10572;DHT22;5334;48.928;12.704;2022-12-18T04:39:27;-4.70;99.90
10572;DHT22;5334;48.928;12.704;2022-12-18T04:41:53;-4.60;99.90
10572;DHT22;5334;48.928;12.704;2022-12-18T04:44:19;-4.70;99.90
10572;DHT22;5334;48.928;12.704;2022-12-18T04:46:44;-4.80;99.90
10572;DHT22;5334;48.928;12.704;2022-12-18T04:49:10;-4.70;99.90
10572;DHT22;5334;48.928;12.704;2022-12-18T04:51:37;-4.80;99.90
10572;DHT22;5334;48.928;12.704;2022-12-18T04:54:03;-4.90;99.90
10572;DHT22;5334;48.928;12.704;2022-12-18T04:56:30;-5.00;99.90
10572;DHT22;5334;48.928;12.704;2022-12-18T04:58:56;-5.00;99.90
10572;DHT22;5334;48.928;12.704;2022-12-18T05:01:21;-5.10;99.90
10572;DHT22;5334;48.928;12.704;2022-12-18T05:03:47;-5.10;99.90
10572;DHT22;5334;48.928;12.704;2022-12-18T05:06:13;-5.00;99.90
10572;DHT22;5334;48.928;12.704;2022-12-18T05:08:39;-5.00;99.90
10572;DHT22;5334;48.928;12.704;2022-12-18T05:11:05;-4.90;99.90
10572;DHT22;5334;48.928;12.704;2022-12-18T05:13:32;-4.80;99.90
10572;DHT22;5334;48.928;12.704;2022-12-18T05:15:58;-4.80;99.90
10572;DHT22;5334;48.928;12.704;2022-12-18T05:18:23;-4.80;99.90
10572;DHT22;5334;48.928;12.704;2022-12-18T05:20:52;-4.80;99.90
10572;DHT22;5334;48.928;12.704;2022-12-18T05:23:19;-4.70;99.90
10572;DHT22;5334;48.928;12.704;2022-12-18T05:25:53;-4.70;99.90
10572;DHT22;5334;48.928;12.704;2022-12-18T05:28:19;-4.70;99.90
10572;DHT22;5334;48.928;12.704;2022-12-18T05:30:52;-4.70;99.90
10572;DHT22;5334;48.928;12.704;2022-12-18T05:33:20;-4.60;99.90
10572;DHT22;5334;48.928;12.704;2022-12-18T05:35:50;-4.60;99.90
10572;DHT22;5334;48.928;12.704;2022-12-18T05:38:17;-4.60;99.90
10572;DHT22;5334;48.928;12.704;2022-12-18T05:40:43;-4.70;99.90
10572;DHT22;5334;48.928;12.704;2022-12-18T05:43:09;-4.70;99.90
10572;DHT22;5334;48.928;12.704;2022-12-18T05:45:39;-4.80;99.90
10572;DHT22;5334;48.928;12.704;2022-12-18T05:48:05;-4.80;99.90
10572;DHT22;5334;48.928;12.704;2022-12-18T05:50:36;-4.80;99.90
10572;DHT22;5334;48.928;12.704;2022-12-18T05:53:03;-4.90;99.90
10572;DHT22;5334;48.928;12.704;2022-12-18T05:55:32;-4.90;99.90
10572;DHT22;5334;48.928;12.704;2022-12-18T05:57:58;-4.90;99.90
10572;DHT22;5334;48.928;12.704;2022-12-18T06:00:24;-5.00;99.90
10572;DHT22;5334;48.928;12.704;2022-12-18T06:02:50;-4.90;99.90
10572;DHT22;5334;48.928;12.704;2022-12-18T06:05:15;-5.00;99.90
10572;DHT22;5334;48.928;12.704;2022-12-18T06:07:41;-5.00;99.90
10572;DHT22;5334;48.928;12.704;2022-12-18T06:10:07;-5.10;99.90
10572;DHT22;5334;48.928;12.704;2022-12-18T06:12:33;-5.10;99.90
10572;DHT22;5334;48.928;12.704;2022-12-18T06:15:01;-5.10;99.90
10572;DHT22;5334;48.928;12.704;2022-12-18T06:17:28;-5.10;99.90
10572;DHT22;5334;48.928;12.704;2022-12-18T06:19:55;-5.10;99.90
10572;DHT22;5334;48.928;12.704;2022-12-18T06:22:20;-5.10;99.90
10572;DHT22;5334;48.928;12.704;2022-12-18T06:24:46;-4.90;99.90
10572;DHT22;5334;48.928;12.704;2022-12-18T06:27:12;-4.80;99.90
10572;DHT22;5334;48.928;12.704;2022-12-18T06:29:37;-4.80;99.90
10572;DHT22;5334;48.928;12.704;2022-12-18T06:32:03;-4.70;99.90
10572;DHT22;5334;48.928;12.704;2022-12-18T06:34:29;-4.80;99.90
10572;DHT22;5334;48.928;12.704;2022-12-18T06:36:55;-4.80;99.90
10572;DHT22;5334;48.928;12.704;2022-12-18T06:39:20;-4.70;99.90
10572;DHT22;5334;48.928;12.704;2022-12-18T06:41:46;-4.80;99.90
10572;DHT22;5334;48.928;12.704;2022-12-18T06:44:11;-4.80;99.90
10572;DHT22;5334;48.928;12.704;2022-12-18T06:46:37;-4.80;99.90
10572;DHT22;5334;48.928;12.704;2022-12-18T06:49:03;-4.70;99.90
10572;DHT22;5334;48.928;12.704;2022-12-18T06:51:29;-4.70;99.90
10572;DHT22;5334;48.928;12.704;2022-12-18T06:53:55;-4.70;99.90
10572;DHT22;5334;48.928;12.704;2022-12-18T06:56:21;-4.80;99.90
10572;DHT22;5334;48.928;12.704;2022-12-18T06:58:46;-4.90;99.90
10572;DHT22;5334;48.928;12.704;2022-12-18T07:01:12;-5.00;99.90
10572;DHT22;5334;48.928;12.704;2022-12-18T07:03:39;-5.10;99.90
10572;DHT22;5334;48.928;12.704;2022-12-18T07:06:05;-5.10;99.90
10572;DHT22;5334;48.928;12.704;2022-12-18T07:08:32;-5.10;99.90
10572;DHT22;5334;48.928;12.704;2022-12-18T07:10:57;-5.00;99.90
10572;DHT22;5334;48.928;12.704;2022-12-18T07:13:23;-4.90;99.90
10572;DHT22;5334;48.928;12.704;2022-12-18T07:15:49;-4.90;99.90
10572;DHT22;5334;48.928;12.704;2022-12-18T07:18:15;-4.90;99.90
10572;DHT22;5334;48.928;12.704;2022-12-18T07:20:41;-5.00;99.90
10572;DHT22;5334;48.928;12.704;2022-12-18T07:23:06;-5.00;99.90
10572;DHT22;5334;48.928;12.704;2022-12-18T07:25:36;-5.00;99.90
10572;DHT22;5334;48.928;12.704;2022-12-18T07:28:02;-4.90;99.90
10572;DHT22;5334;48.928;12.704;2022-12-18T07:30:28;-5.00;99.90
10572;DHT22;5334;48.928;12.704;2022-12-18T07:32:54;-5.10;99.90
10572;DHT22;5334;48.928;12.704;2022-12-18T07:35:20;-5.10;99.90
10572;DHT22;5334;48.928;12.704;2022-12-18T07:37:45;-5.10;99.90
10572;DHT22;5334;48.928;12.704;2022-12-18T07:40:11;-5.00;99.90
10572;DHT22;5334;48.928;12.704;2022-12-18T07:42:37;-5.00;99.90
10572;DHT22;5334;48.928;12.704;2022-12-18T07:45:04;-5.00;99.90
10572;DHT22;5334;48.928;12.704;2022-12-18T07:47:30;-5.00;99.90
10572;DHT22;5334;48.928;12.704;2022-12-18T07:49:55;-5.00;99.90
10572;DHT22;5334;48.928;12.704;2022-12-18T07:52:21;-5.00;99.90
10572;DHT22;5334;48.928;12.704;2022-12-18T07:54:47;-5.20;99.90
10572;DHT22;5334;48.928;12.704;2022-12-18T07:57:16;-5.20;99.90
10572;DHT22;5334;48.928;12.704;2022-12-18T07:59:42;-5.20;99.90
10572;DHT22;5334;48.928;12.704;2022-12-18T08:02:08;-5.10;99.90
10572;DHT22;5334;48.928;12.704;2022-12-18T08:04:33;-5.10;99.90
10572;DHT22;5334;48.928;12.704;2022-12-18T08:06:59;-5.10;99.90
10572;DHT22;5334;48.928;12.704;2022-12-18T08:09:25;-5.10;99.90
10572;DHT22;5334;48.928;12.704;2022-12-18T08:11:50;-5.10;99.90
10572;DHT22;5334;48.928;12.704;2022-12-18T08:14:16;-4.90;99.90
10572;DHT22;5334;48.928;12.704;2022-12-18T08:16:42;-4.90;99.90
10572;DHT22;5334;48.928;12.704;2022-12-18T08:19:07;-5.00;99.90
10572;DHT22;5334;48.928;12.704;2022-12-18T08:21:33;-4.90;99.90
10572;DHT22;5334;48.928;12.704;2022-12-18T08:24:00;-4.80;99.90
10572;DHT22;5334;48.928;12.704;2022-12-18T08:26:28;-4.80;99.90
10572;DHT22;5334;48.928;12.704;2022-12-18T08:28:58;-4.70;99.90
10572;DHT22;5334;48.928;12.704;2022-12-18T08:31:25;-4.60;99.90
10572;DHT22;5334;48.928;12.704;2022-12-18T08:33:52;-4.70;99.90
10572;DHT22;5334;48.928;12.704;2022-12-18T08:36:19;-4.70;99.90
10572;DHT22;5334;48.928;12.704;2022-12-18T08:38:45;-4.70;99.90
10572;DHT22;5334;48.928;12.704;2022-12-18T08:41:13;-4.70;99.90
10572;DHT22;5334;48.928;12.704;2022-12-18T08:43:39;-4.70;99.90
10572;DHT22;5334;48.928;12.704;2022-12-18T08:46:25;-4.80;99.90
10572;DHT22;5334;48.928;12.704;2022-12-18T08:48:52;-4.90;99.90
10572;DHT22;5334;48.928;12.704;2022-12-18T08:51:18;-4.90;99.90
10572;DHT22;5334;48.928;12.704;2022-12-18T08:53:45;-4.90;99.90
10572;DHT22;5334;48.928;12.704;2022-12-18T08:56:11;-4.80;99.90
10572;DHT22;5334;48.928;12.704;2022-12-18T08:58:37;-4.70;99.90
10572;DHT22;5334;48.928;12.704;2022-12-18T09:01:05;-4.70;99.90
10572;DHT22;5334;48.928;12.704;2022-12-18T09:03:31;-4.90;99.90
10572;DHT22;5334;48.928;12.704;2022-12-18T09:05:58;-4.80;99.90
10572;DHT22;5334;48.928;12.704;2022-12-18T09:08:25;-4.90;99.90
10572;DHT22;5334;48.928;12.704;2022-12-18T09:10:51;-5.00;99.90
10572;DHT22;5334;48.928;12.704;2022-12-18T09:13:17;-4.90;99.90
10572;DHT22;5334;48.928;12.704;2022-12-18T09:15:45;-5.00;99.90
10572;DHT22;5334;48.928;12.704;2022-12-18T09:18:13;-4.90;99.90
10572;DHT22;5334;48.928;12.704;2022-12-18T09:20:39;-4.80;99.90
10572;DHT22;5334;48.928;12.704;2022-12-18T09:23:05;-4.70;99.90
10572;DHT22;5334;48.928;12.704;2022-12-18T09:25:31;-4.50;99.90
10572;DHT22;5334;48.928;12.704;2022-12-18T09:28:18;-4.60;99.90
10572;DHT22;5334;48.928;12.704;2022-12-18T09:30:47;-4.60;99.90
10572;DHT22;5334;48.928;12.704;2022-12-18T09:33:14;-4.60;99.90
10572;DHT22;5334;48.928;12.704;2022-12-18T09:35:41;-4.60;99.90
10572;DHT22;5334;48.928;12.704;2022-12-18T09:38:08;-4.50;99.90
10572;DHT22;5334;48.928;12.704;2022-12-18T09:40:41;-4.60;99.90
10572;DHT22;5334;48.928;12.704;2022-12-18T09:43:20;-4.80;99.90
10572;DHT22;5334;48.928;12.704;2022-12-18T09:45:53;-4.70;99.90
10572;DHT22;5334;48.928;12.704;2022-12-18T09:48:32;-4.50;99.90
10572;DHT22;5334;48.928;12.704;2022-12-18T09:51:24;-4.50;99.90
10572;DHT22;5334;48.928;12.704;2022-12-18T09:54:00;-4.60;99.90
10572;DHT22;5334;48.928;12.704;2022-12-18T09:56:28;-4.70;99.90
10572;DHT22;5334;48.928;12.704;2022-12-18T09:59:00;-4.70;99.90
10572;DHT22;5334;48.928;12.704;2022-12-18T10:01:28;-4.80;99.90
10572;DHT22;5334;48.928;12.704;2022-12-18T10:03:55;-4.70;99.90
10572;DHT22;5334;48.928;12.704;2022-12-18T10:06:31;-4.50;99.90
10572;DHT22;5334;48.928;12.704;2022-12-18T10:19:55;-4.10;99.90
10572;DHT22;5334;48.928;12.704;2022-12-18T10:27:55;-2.90;99.90
10572;DHT22;5334;48.928;12.704;2022-12-18T10:30:23;-2.30;99.90
10572;DHT22;5334;48.928;12.704;2022-12-18T10:32:49;-1.40;99.90
10572;DHT22;5334;48.928;12.704;2022-12-18T10:35:21;-0.50;99.90
10572;DHT22;5334;48.928;12.704;2022-12-18T10:43:28;1.30;99.90
10572;DHT22;5334;48.928;12.704;2022-12-18T10:48:29;2.10;99.90
10572;DHT22;5334;48.928;12.704;2022-12-18T10:50:56;2.40;99.90
10572;DHT22;5334;48.928;12.704;2022-12-18T10:53:25;2.70;99.90
10572;DHT22;5334;48.928;12.704;2022-12-18T11:06:22;3.70;99.90
10572;DHT22;5334;48.928;12.704;2022-12-18T11:09:26;3.90;99.90
10572;DHT22;5334;48.928;12.704;2022-12-18T11:14:31;4.10;99.90
10572;DHT22;5334;48.928;12.704;2022-12-18T11:16:58;4.20;99.90
10572;DHT22;5334;48.928;12.704;2022-12-18T11:19:39;4.30;99.90
10572;DHT22;5334;48.928;12.704;2022-12-18T11:22:29;4.30;99.90
10572;DHT22;5334;48.928;12.704;2022-12-18T11:25:19;4.50;99.90
10572;DHT22;5334;48.928;12.704;2022-12-18T11:36:13;5.10;99.90
10572;DHT22;5334;48.928;12.704;2022-12-18T11:38:40;5.10;99.90
10572;DHT22;5334;48.928;12.704;2022-12-18T11:41:26;5.40;99.90
10572;DHT22;5334;48.928;12.704;2022-12-18T11:44:18;5.50;99.90
10572;DHT22;5334;48.928;12.704;2022-12-18T11:46:52;5.60;99.90
10572;DHT22;5334;48.928;12.704;2022-12-18T11:49:27;5.40;99.90
10572;DHT22;5334;48.928;12.704;2022-12-18T11:52:26;5.40;99.90
10572;DHT22;5334;48.928;12.704;2022-12-18T11:54:59;5.50;99.90
10572;DHT22;5334;48.928;12.704;2022-12-18T12:14:12;4.00;99.90
10572;DHT22;5334;48.928;12.704;2022-12-18T12:16:57;4.30;99.90
10572;DHT22;5334;48.928;12.704;2022-12-18T12:25:37;5.40;99.90
10572;DHT22;5334;48.928;12.704;2022-12-18T12:33:54;5.40;99.90
10572;DHT22;5334;48.928;12.704;2022-12-18T12:38:59;6.20;99.90
10572;DHT22;5334;48.928;12.704;2022-12-18T12:41:30;6.30;99.80
10572;DHT22;5334;48.928;12.704;2022-12-18T12:44:25;6.00;99.90
10572;DHT22;5334;48.928;12.704;2022-12-18T12:46:56;5.40;99.90
10572;DHT22;5334;48.928;12.704;2022-12-18T12:49:26;5.20;99.90
10572;DHT22;5334;48.928;12.704;2022-12-18T12:52:00;5.30;99.90
10572;DHT22;5334;48.928;12.704;2022-12-18T12:54:32;5.10;99.90
10572;DHT22;5334;48.928;12.704;2022-12-18T12:59:32;4.30;99.90
10572;DHT22;5334;48.928;12.704;2022-12-18T13:02:31;4.70;99.90
10572;DHT22;5334;48.928;12.704;2022-12-18T13:05:15;5.10;99.90
10572;DHT22;5334;48.928;12.704;2022-12-18T13:15:45;5.20;99.90
10572;DHT22;5334;48.928;12.704;2022-12-18T13:18:21;4.80;99.90
10572;DHT22;5334;48.928;12.704;2022-12-18T13:25:51;4.00;99.90
10572;DHT22;5334;48.928;12.704;2022-12-18T13:28:49;3.70;99.90
10572;DHT22;5334;48.928;12.704;2022-12-18T13:31:09;3.30;99.90
10572;DHT22;5334;48.928;12.704;2022-12-18T13:33:43;2.60;99.90
10572;DHT22;5334;48.928;12.704;2022-12-18T13:39:53;2.00;99.90
10572;DHT22;5334;48.928;12.704;2022-12-18T13:44:59;1.60;99.90
10572;DHT22;5334;48.928;12.704;2022-12-18T13:47:33;1.50;99.90
10572;DHT22;5334;48.928;12.704;2022-12-18T13:50:01;1.40;99.90
10572;DHT22;5334;48.928;12.704;2022-12-18T13:52:36;1.20;99.90
10572;DHT22;5334;48.928;12.704;2022-12-18T13:55:05;1.10;99.90
10572;DHT22;5334;48.928;12.704;2022-12-18T13:57:35;1.10;99.90
10572;DHT22;5334;48.928;12.704;2022-12-18T14:02:49;0.70;99.90
10572;DHT22;5334;48.928;12.704;2022-12-18T14:05:29;0.70;99.90
10572;DHT22;5334;48.928;12.704;2022-12-18T14:08:00;0.50;99.90
10572;DHT22;5334;48.928;12.704;2022-12-18T14:10:27;0.40;99.90
10572;DHT22;5334;48.928;12.704;2022-12-18T14:12:53;0.20;99.90
10572;DHT22;5334;48.928;12.704;2022-12-18T14:17:58;-0.10;99.90
10572;DHT22;5334;48.928;12.704;2022-12-18T14:20:26;-0.30;99.90
10572;DHT22;5334;48.928;12.704;2022-12-18T14:22:52;-0.30;99.90
10572;DHT22;5334;48.928;12.704;2022-12-18T14:25:22;-0.40;99.90
10572;DHT22;5334;48.928;12.704;2022-12-18T14:30:37;-0.60;99.90
10572;DHT22;5334;48.928;12.704;2022-12-18T14:38:27;-1.30;99.90
10572;DHT22;5334;48.928;12.704;2022-12-18T14:41:05;-1.50;99.90
10572;DHT22;5334;48.928;12.704;2022-12-18T14:43:34;-1.80;99.90
10572;DHT22;5334;48.928;12.704;2022-12-18T14:46:00;-1.90;99.90
10572;DHT22;5334;48.928;12.704;2022-12-18T14:48:41;-2.00;99.90
10572;DHT22;5334;48.928;12.704;2022-12-18T14:51:16;-2.10;99.90
10572;DHT22;5334;48.928;12.704;2022-12-18T14:53:45;-2.20;99.90
10572;DHT22;5334;48.928;12.704;2022-12-18T14:56:19;-2.30;99.90
10572;DHT22;5334;48.928;12.704;2022-12-18T14:58:53;-2.50;99.90
10572;DHT22;5334;48.928;12.704;2022-12-18T15:01:25;-2.60;99.90
10572;DHT22;5334;48.928;12.704;2022-12-18T15:03:52;-2.70;99.90
10572;DHT22;5334;48.928;12.704;2022-12-18T15:06:36;-2.80;99.90
10572;DHT22;5334;48.928;12.704;2022-12-18T15:09:22;-2.90;99.90
10572;DHT22;5334;48.928;12.704;2022-12-18T15:11:48;-3.00;99.90
10572;DHT22;5334;48.928;12.704;2022-12-18T15:16:58;-3.20;99.90
10572;DHT22;5334;48.928;12.704;2022-12-18T15:19:51;-3.30;99.90
10572;DHT22;5334;48.928;12.704;2022-12-18T15:22:26;-3.40;99.90
10572;DHT22;5334;48.928;12.704;2022-12-18T15:24:53;-3.70;99.90
10572;DHT22;5334;48.928;12.704;2022-12-18T15:27:25;-3.60;99.90
10572;DHT22;5334;48.928;12.704;2022-12-18T15:30:21;-3.60;99.90
10572;DHT22;5334;48.928;12.704;2022-12-18T15:32:47;-3.60;99.90
10572;DHT22;5334;48.928;12.704;2022-12-18T15:37:45;-3.70;99.90
10572;DHT22;5334;48.928;12.704;2022-12-18T15:40:29;-3.70;99.90
10572;DHT22;5334;48.928;12.704;2022-12-18T15:42:55;-3.70;99.90
10572;DHT22;5334;48.928;12.704;2022-12-18T15:45:39;-3.80;99.90
10572;DHT22;5334;48.928;12.704;2022-12-18T15:48:20;-3.80;99.90
10572;DHT22;5334;48.928;12.704;2022-12-18T15:50:46;-3.70;99.90
10572;DHT22;5334;48.928;12.704;2022-12-18T15:53:11;-3.70;99.90
10572;DHT22;5334;48.928;12.704;2022-12-18T15:55:37;-3.60;99.90
10572;DHT22;5334;48.928;12.704;2022-12-18T15:58:22;-3.80;99.90
10572;DHT22;5334;48.928;12.704;2022-12-18T16:00:47;-3.80;99.90
10572;DHT22;5334;48.928;12.704;2022-12-18T16:03:13;-3.80;99.90
10572;DHT22;5334;48.928;12.704;2022-12-18T16:05:39;-3.80;99.90
10572;DHT22;5334;48.928;12.704;2022-12-18T16:08:05;-3.90;99.90
10572;DHT22;5334;48.928;12.704;2022-12-18T16:10:30;-4.00;99.90
10572;DHT22;5334;48.928;12.704;2022-12-18T16:12:56;-4.00;99.90
10572;DHT22;5334;48.928;12.704;2022-12-18T16:15:22;-4.00;99.90
10572;DHT22;5334;48.928;12.704;2022-12-18T16:17:48;-4.00;99.90
10572;DHT22;5334;48.928;12.704;2022-12-18T16:20:18;-4.00;99.90
10572;DHT22;5334;48.928;12.704;2022-12-18T16:22:45;-4.10;99.90
10572;DHT22;5334;48.928;12.704;2022-12-18T16:25:21;-4.20;99.90
10572;DHT22;5334;48.928;12.704;2022-12-18T16:27:47;-4.30;99.90
10572;DHT22;5334;48.928;12.704;2022-12-18T16:30:18;-4.30;99.90
10572;DHT22;5334;48.928;12.704;2022-12-18T16:32:45;-4.30;99.90
10572;DHT22;5334;48.928;12.704;2022-12-18T16:35:15;-4.40;99.90
10572;DHT22;5334;48.928;12.704;2022-12-18T16:37:41;-4.30;99.90
10572;DHT22;5334;48.928;12.704;2022-12-18T16:40:10;-4.40;99.90
10572;DHT22;5334;48.928;12.704;2022-12-18T16:42:38;-4.40;99.90
10572;DHT22;5334;48.928;12.704;2022-12-18T16:45:08;-4.50;99.90
10572;DHT22;5334;48.928;12.704;2022-12-18T16:47:35;-4.50;99.90
10572;DHT22;5334;48.928;12.704;2022-12-18T16:50:01;-4.50;99.90
10572;DHT22;5334;48.928;12.704;2022-12-18T16:52:27;-4.60;99.90
10572;DHT22;5334;48.928;12.704;2022-12-18T16:54:54;-4.60;99.90
10572;DHT22;5334;48.928;12.704;2022-12-18T16:57:21;-4.60;99.90
10572;DHT22;5334;48.928;12.704;2022-12-18T16:59:47;-4.60;99.90
10572;DHT22;5334;48.928;12.704;2022-12-18T17:02:15;-4.70;99.90
10572;DHT22;5334;48.928;12.704;2022-12-18T17:04:42;-4.70;99.90
10572;DHT22;5334;48.928;12.704;2022-12-18T17:07:08;-4.70;99.90
10572;DHT22;5334;48.928;12.704;2022-12-18T17:09:34;-4.80;99.90
10572;DHT22;5334;48.928;12.704;2022-12-18T17:12:00;-4.80;99.90
10572;DHT22;5334;48.928;12.704;2022-12-18T17:14:26;-4.80;99.90
10572;DHT22;5334;48.928;12.704;2022-12-18T17:16:53;-4.80;99.90
10572;DHT22;5334;48.928;12.704;2022-12-18T17:19:19;-4.80;99.90
10572;DHT22;5334;48.928;12.704;2022-12-18T17:21:48;-4.80;99.90
10572;DHT22;5334;48.928;12.704;2022-12-18T17:24:14;-4.90;99.90
10572;DHT22;5334;48.928;12.704;2022-12-18T17:26:40;-4.90;99.90
10572;DHT22;5334;48.928;12.704;2022-12-18T17:29:06;-4.90;99.90
10572;DHT22;5334;48.928;12.704;2022-12-18T17:31:33;-4.90;99.90
10572;DHT22;5334;48.928;12.704;2022-12-18T17:34:02;-4.90;99.90
10572;DHT22;5334;48.928;12.704;2022-12-18T17:36:28;-4.80;99.90
10572;DHT22;5334;48.928;12.704;2022-12-18T17:38:58;-4.80;99.90
10572;DHT22;5334;48.928;12.704;2022-12-18T17:41:26;-4.80;99.90
10572;DHT22;5334;48.928;12.704;2022-12-18T17:43:54;-4.80;99.90
10572;DHT22;5334;48.928;12.704;2022-12-18T17:46:20;-4.70;99.90
10572;DHT22;5334;48.928;12.704;2022-12-18T17:48:46;-4.80;99.90
10572;DHT22;5334;48.928;12.704;2022-12-18T17:51:12;-4.80;99.90
10572;DHT22;5334;48.928;12.704;2022-12-18T17:53:39;-4.80;99.90
10572;DHT22;5334;48.928;12.704;2022-12-18T17:56:05;-4.80;99.90
10572;DHT22;5334;48.928;12.704;2022-12-18T17:58:32;-4.80;99.90
10572;DHT22;5334;48.928;12.704;2022-12-18T18:00:59;-4.80;99.90
10572;DHT22;5334;48.928;12.704;2022-12-18T18:03:25;-4.80;99.90
10572;DHT22;5334;48.928;12.704;2022-12-18T18:05:55;-4.80;99.90
10572;DHT22;5334;48.928;12.704;2022-12-18T18:08:22;-4.80;99.90